Time;durP1;ratioP1;P1;durP2;ratioP2;P2;SDS_P1;SDS_P2;PMS_P1;PMS_P2;Temp;Humidity;BMP_temperature;BMP_pressure;BME280_temperature;BME280_humidity;BME280_pressure;Samples;Min_cycle;Max_cycle;Signal;HPM_P1;HPM_P2
2022/11/30 00:01:53;;;;;;;1.03;1.03;;;;;;;8.33;100.00;99717.13;5137390;27;20213;-67
2022/11/30 00:04:20;;;;;;;0.70;0.70;;;;;;;8.36;100.00;99719.66;5142780;27;20256;-67
2022/11/30 00:06:47;;;;;;;0.53;0.53;;;;;;;8.38;100.00;99724.72;5143141;27;20568;-67
2022/11/30 00:09:13;;;;;;;0.80;0.80;;;;;;;8.28;100.00;99706.13;5141623;27;20224;-67
2022/11/30 00:11:40;;;;;;;0.57;0.57;;;;;;;8.28;100.00;99711.25;5136261;27;20729;-67
2022/11/30 00:14:07;;;;;;;0.50;0.50;;;;;;;8.40;100.00;99728.91;5135897;27;20258;-67
2022/11/30 00:16:34;;;;;;;0.60;0.60;;;;;;;8.35;100.00;99722.22;5139475;27;20657;-67
2022/11/30 00:19:02;;;;;;;0.50;0.50;;;;;;;8.34;100.00;99736.69;5143189;27;20201;-67
2022/11/30 00:21:31;;;;;;;0.70;0.70;;;;;;;8.35;100.00;99728.16;5146309;27;20217;-67
2022/11/30 00:23:58;;;;;;;0.60;0.60;;;;;;;8.36;100.00;99724.75;5134863;27;20198;-67
2022/11/30 00:26:24;;;;;;;0.60;0.60;;;;;;;8.32;100.00;99723.09;5144790;27;20238;-67
2022/11/30 00:28:51;;;;;;;0.53;0.53;;;;;;;8.35;100.00;99725.63;5152995;27;20193;-67
2022/11/30 00:31:18;;;;;;;0.70;0.70;;;;;;;8.30;100.00;99712.06;5140976;27;20250;-67
2022/11/30 00:33:45;;;;;;;0.63;0.63;;;;;;;8.35;100.00;99723.06;5135496;27;20194;-67
2022/11/30 00:36:15;;;;;;;0.50;0.50;;;;;;;8.34;100.00;99723.91;5150756;27;20190;-67
2022/11/30 00:38:42;;;;;;;0.60;0.60;;;;;;;8.36;100.00;99711.97;5146260;27;20190;-67
2022/11/30 00:41:09;;;;;;;0.60;0.60;;;;;;;8.37;100.00;99720.47;5136151;27;20222;-67
2022/11/30 00:43:36;;;;;;;0.73;0.73;;;;;;;8.39;100.00;99717.03;5145336;27;20193;-67
2022/11/30 00:46:03;;;;;;;0.63;0.63;;;;;;;8.39;100.00;99718.75;5135838;27;20229;-67
2022/11/30 00:48:30;;;;;;;0.43;0.43;;;;;;;8.36;100.00;99714.53;5137116;27;20198;-67
2022/11/30 00:50:57;;;;;;;0.40;0.40;;;;;;;8.39;100.00;99716.19;5139385;27;20194;-67
2022/11/30 00:53:25;;;;;;;0.50;0.50;;;;;;;8.32;100.00;99712.03;5136123;27;20193;-67
2022/11/30 00:55:52;;;;;;;0.57;0.57;;;;;;;8.31;100.00;99716.31;5145736;27;20190;-67
2022/11/30 00:58:19;;;;;;;0.60;0.60;;;;;;;8.27;100.00;99709.50;5146120;27;20251;-67
2022/11/30 01:00:46;;;;;;;0.50;0.50;;;;;;;8.23;100.00;99710.47;5140117;27;20558;-67
2022/11/30 01:03:13;;;;;;;0.80;0.80;;;;;;;8.23;100.00;99717.28;5147425;27;20217;-67
2022/11/30 01:05:42;;;;;;;0.53;0.53;;;;;;;8.19;100.00;99713.06;5144903;27;20198;-67
2022/11/30 01:08:10;;;;;;;0.97;0.97;;;;;;;8.16;100.00;99711.41;5148196;27;20657;-67
2022/11/30 01:10:40;;;;;;;0.53;0.53;;;;;;;8.17;100.00;99708.00;5150569;27;20209;-67
2022/11/30 01:13:08;;;;;;;0.77;0.77;;;;;;;8.17;100.00;99713.09;5143133;27;20243;-67
2022/11/30 01:15:37;;;;;;;0.50;0.50;;;;;;;8.17;100.00;99707.16;5138287;27;20202;-67
2022/11/30 01:18:04;;;;;;;0.60;0.60;;;;;;;8.16;100.00;99708.00;5151304;27;20649;-67
2022/11/30 01:20:31;;;;;;;0.50;0.50;;;;;;;8.20;100.00;99702.84;5154484;27;20209;-67
2022/11/30 01:22:58;;;;;;;0.50;0.50;;;;;;;8.22;100.00;99715.56;5134485;27;20197;-67
2022/11/30 01:25:24;;;;;;;0.50;0.50;;;;;;;8.21;100.00;99711.31;5135605;27;20274;-67
2022/11/30 01:27:53;;;;;;;0.60;0.60;;;;;;;8.16;100.00;99691.00;5135530;27;20205;-67
2022/11/30 01:30:20;;;;;;;0.60;0.60;;;;;;;8.20;100.00;99713.06;5141135;27;20190;-67
2022/11/30 01:32:47;;;;;;;0.70;0.70;;;;;;;8.20;100.00;99699.44;5140379;27;20205;-67
2022/11/30 01:35:13;;;;;;;0.50;0.50;;;;;;;8.22;100.00;99703.66;5154505;27;20239;-67
2022/11/30 01:37:40;;;;;;;0.50;0.50;;;;;;;8.24;100.00;99698.53;5138716;27;20201;-67
2022/11/30 01:40:08;;;;;;;0.50;0.50;;;;;;;8.27;100.00;99711.25;5132205;27;20198;-67
2022/11/30 01:42:36;;;;;;;0.73;0.73;;;;;;;8.22;100.00;99697.69;5135749;27;20198;-67
2022/11/30 01:45:06;;;;;;;1.27;1.27;;;;;;;8.26;100.00;99700.19;5148809;27;20193;-67
2022/11/30 01:47:36;;;;;;;0.90;0.90;;;;;;;8.24;100.00;99694.25;5140113;27;20217;-67
2022/11/30 01:50:06;;;;;;;1.17;1.17;;;;;;;8.31;100.00;99690.75;5140977;27;20204;-67
2022/11/30 01:52:36;;;;;;;0.60;0.60;;;;;;;8.34;100.00;99695.81;5136911;27;20190;-67
2022/11/30 01:55:11;;;;;;;0.77;0.77;;;;;;;8.37;100.00;99694.91;5134916;27;20201;-67
2022/11/30 01:57:40;;;;;;;0.50;0.50;;;;;;;8.37;100.00;99689.81;5137008;27;20253;-67
2022/11/30 02:00:12;;;;;;;0.87;0.87;;;;;;;8.37;100.00;99695.75;5138266;27;20190;-67
2022/11/30 02:02:47;;;;;;;0.80;0.80;;;;;;;8.39;100.00;99694.03;5143793;27;20193;-67
2022/11/30 02:05:17;;;;;;;1.13;1.13;;;;;;;8.40;100.00;99690.59;5144039;27;20657;-67
2022/11/30 02:07:44;;;;;;;0.60;0.60;;;;;;;8.42;100.00;99688.88;5134475;27;20198;-67
2022/11/30 02:10:14;;;;;;;0.67;0.67;;;;;;;8.45;100.00;99687.97;5138743;27;20212;-67
2022/11/30 02:13:00;;;;;;;0.57;0.57;;;;;;;8.44;100.00;99687.13;5132770;27;20194;-67
2022/11/30 02:15:32;;;;;;;0.63;0.63;;;;;;;8.47;100.00;99690.50;5150012;27;20555;-67
2022/11/30 02:18:06;;;;;;;0.90;0.90;;;;;;;8.46;100.00;99687.13;5132737;27;20190;-67
2022/11/30 02:20:50;;;;;;;0.50;0.50;;;;;;;8.42;100.00;99673.56;5135984;27;20693;-67
2022/11/30 02:23:50;;;;;;;0.63;0.63;;;;;;;8.44;100.00;99679.47;5134044;27;20247;-67
2022/11/30 02:26:32;;;;;;;0.57;0.57;;;;;;;8.49;100.00;99686.22;5147053;27;20272;-67
2022/11/30 02:29:12;;;;;;;0.60;0.60;;;;;;;8.44;100.00;99682.03;5147009;27;20197;-67
2022/11/30 02:31:48;;;;;;;0.50;0.50;;;;;;;8.51;100.00;99681.91;5140548;27;20252;-67
2022/11/30 02:34:17;;;;;;;0.53;0.53;;;;;;;8.51;100.00;99687.88;5139130;27;20193;-67
2022/11/30 02:36:46;;;;;;;0.73;0.73;;;;;;;8.54;100.00;99686.97;5143883;27;20266;-67
2022/11/30 02:39:13;;;;;;;0.50;0.50;;;;;;;8.56;100.00;99695.47;5132482;27;20194;-67
2022/11/30 02:41:41;;;;;;;0.50;0.50;;;;;;;8.51;100.00;99687.03;5128519;27;20213;-67
2022/11/30 02:44:14;;;;;;;0.50;0.50;;;;;;;8.53;100.00;99696.34;5145488;27;20204;-67
2022/11/30 02:46:52;;;;;;;0.50;0.50;;;;;;;8.54;100.00;99692.09;5152514;27;20201;-67
2022/11/30 02:49:27;;;;;;;0.53;0.53;;;;;;;8.51;100.00;99698.09;5152857;27;20227;-67
2022/11/30 02:51:56;;;;;;;0.40;0.40;;;;;;;8.53;100.00;99703.19;5135098;27;20197;-67
2022/11/30 02:54:24;;;;;;;0.50;0.50;;;;;;;8.52;100.00;99701.50;5153067;27;20190;-67
2022/11/30 02:56:50;;;;;;;0.60;0.60;;;;;;;8.52;100.00;99706.59;5142440;27;20680;-67
2022/11/30 02:59:20;;;;;;;0.50;0.50;;;;;;;8.48;100.00;99712.63;5129152;27;20289;-67
2022/11/30 03:01:46;;;;;;;0.43;0.43;;;;;;;8.45;100.00;99703.31;5129394;27;20214;-67
2022/11/30 03:04:13;;;;;;;0.40;0.40;;;;;;;8.40;100.00;99700.81;5131797;27;20234;-67
2022/11/30 03:06:40;;;;;;;0.60;0.60;;;;;;;8.48;100.00;99710.06;5131364;27;20240;-67
2022/11/30 03:09:07;;;;;;;0.60;0.60;;;;;;;8.48;100.00;99702.41;5131482;27;20194;-67
2022/11/30 03:11:34;;;;;;;0.50;0.50;;;;;;;8.49;100.00;99704.09;5137010;27;20193;-67
2022/11/30 03:14:01;;;;;;;0.60;0.60;;;;;;;8.49;100.00;99706.66;5146133;27;20248;-67
2022/11/30 03:16:29;;;;;;;0.60;0.60;;;;;;;8.21;100.00;99657.69;5140906;27;20204;-67
2022/11/30 03:18:57;;;;;;;0.60;0.60;;;;;;;8.46;100.00;99704.16;5138960;27;20201;-67
2022/11/30 03:21:24;;;;;;;1.13;1.13;;;;;;;8.45;100.00;99703.31;5138618;27;20924;-67
2022/11/30 03:23:51;;;;;;;0.50;0.50;;;;;;;8.47;100.00;99695.59;5131108;27;20585;-67
2022/11/30 03:26:18;;;;;;;0.60;0.60;;;;;;;8.51;100.00;99703.22;5132709;27;20254;-67
2022/11/30 03:28:45;;;;;;;0.50;0.50;;;;;;;8.48;100.00;99697.31;5145558;27;20185;-67
2022/11/30 03:31:12;;;;;;;0.60;0.60;;;;;;;8.40;100.00;99693.16;5140918;27;20190;-67
2022/11/30 03:33:41;;;;;;;0.60;0.60;;;;;;;8.38;100.00;99702.56;5134309;27;20194;-67
2022/11/30 03:36:10;;;;;;;0.50;0.50;;;;;;;8.40;100.00;99703.38;5138422;27;20201;-67
2022/11/30 03:38:37;;;;;;;0.80;0.80;;;;;;;8.39;100.00;99709.38;5135968;27;20198;-67
2022/11/30 03:41:05;;;;;;;0.50;0.50;;;;;;;8.38;100.00;99702.56;5137267;27;20213;-67
2022/11/30 03:43:32;;;;;;;0.60;0.60;;;;;;;8.30;100.00;99688.25;5139412;27;20189;-67
2022/11/30 03:45:59;;;;;;;0.70;0.70;;;;;;;8.42;100.00;99709.31;5131820;27;20201;-67
2022/11/30 03:48:26;;;;;;;0.60;0.60;;;;;;;8.40;100.00;99708.47;5135005;27;20204;-67
2022/11/30 03:50:54;;;;;;;0.57;0.57;;;;;;;8.41;100.00;99707.63;5139835;27;20622;-67
2022/11/30 03:53:23;;;;;;;0.73;0.73;;;;;;;8.43;100.00;99711.00;5141754;27;20201;-67
2022/11/30 03:55:52;;;;;;;0.50;0.50;;;;;;;8.46;100.00;99709.28;5142524;27;20202;-67
2022/11/30 03:58:20;;;;;;;0.40;0.40;;;;;;;8.49;100.00;99704.09;5136384;27;20622;-67
2022/11/30 04:00:46;;;;;;;0.40;0.40;;;;;;;8.48;100.00;99712.63;5134795;27;20578;-67
2022/11/30 04:03:13;;;;;;;0.43;0.43;;;;;;;8.48;100.00;99713.47;5131568;27;20251;-67
2022/11/30 04:05:40;;;;;;;0.50;0.50;;;;;;;8.42;100.00;99719.53;5142049;27;20201;-67
2022/11/30 04:08:08;;;;;;;0.50;0.50;;;;;;;8.41;100.00;99712.72;5132792;27;20194;-67
2022/11/30 04:10:35;;;;;;;0.70;0.70;;;;;;;8.39;100.00;99713.63;5132363;27;20205;-67
2022/11/30 04:13:01;;;;;;;0.70;0.70;;;;;;;8.37;100.00;99718.75;5132945;27;20198;-67
2022/11/30 04:15:28;;;;;;;0.60;0.60;;;;;;;8.37;100.00;99723.88;5134740;27;20194;-67
2022/11/30 04:17:55;;;;;;;0.60;0.60;;;;;;;8.37;100.00;99721.31;5137048;27;20626;-67
2022/11/30 04:20:22;;;;;;;0.60;0.60;;;;;;;8.38;100.00;99717.91;5132424;27;20198;-67
2022/11/30 04:22:48;;;;;;;0.70;0.70;;;;;;;8.38;100.00;99723.00;5148274;27;20207;-67
2022/11/30 04:25:16;;;;;;;0.57;0.57;;;;;;;8.28;100.00;99713.81;5134212;27;20718;-67
2022/11/30 04:27:46;;;;;;;0.57;0.57;;;;;;;8.28;100.00;99716.34;5140375;27;20665;-67
2022/11/30 04:30:13;;;;;;;0.50;0.50;;;;;;;8.30;100.00;99732.47;5137663;27;20657;-67
2022/11/30 04:32:40;;;;;;;0.50;0.50;;;;;;;8.27;100.00;99722.28;5134019;27;20195;-67
2022/11/30 04:35:09;;;;;;;0.50;0.50;;;;;;;8.33;100.00;99735.03;5135579;27;20190;-67
2022/11/30 04:37:36;;;;;;;0.50;0.50;;;;;;;8.29;100.00;99730.81;5139319;27;20201;-67
2022/11/30 04:40:03;;;;;;;0.57;0.57;;;;;;;8.38;100.00;99730.66;5131356;27;20194;-67
2022/11/30 04:42:31;;;;;;;0.40;0.40;;;;;;;8.38;100.00;99740.03;5133395;27;20217;-67
2022/11/30 04:44:57;;;;;;;0.53;0.53;;;;;;;8.32;100.00;99730.78;5145942;27;20266;-67
2022/11/30 04:47:24;;;;;;;0.40;0.40;;;;;;;8.15;100.00;99735.25;5139279;27;20198;-67
2022/11/30 04:49:51;;;;;;;0.60;0.60;;;;;;;8.06;100.00;99734.53;5133000;27;20190;-67
2022/11/30 04:52:18;;;;;;;0.50;0.50;;;;;;;8.11;100.00;99727.69;5136968;27;20573;-67
2022/11/30 04:54:45;;;;;;;0.53;0.53;;;;;;;8.12;100.00;99734.44;5154874;27;20194;-67
2022/11/30 04:57:12;;;;;;;0.60;0.60;;;;;;;8.06;100.00;99735.41;5140711;27;20206;-67
2022/11/30 04:59:40;;;;;;;0.50;0.50;;;;;;;8.09;100.00;99732.78;5134790;27;20554;-67
2022/11/30 05:02:07;;;;;;;0.73;0.73;;;;;;;8.07;100.00;99732.00;5146036;27;20221;-67
2022/11/30 05:04:34;;;;;;;0.60;0.60;;;;;;;8.08;100.00;99728.53;5138668;27;20226;-67
2022/11/30 05:07:00;;;;;;;0.83;0.83;;;;;;;8.06;100.00;99737.09;5136437;27;20194;-67
2022/11/30 05:09:27;;;;;;;1.03;1.03;;;;;;;8.10;100.00;99744.72;5142928;27;20194;-67
2022/11/30 05:11:54;;;;;;;1.50;1.40;;;;;;;8.04;100.00;99739.69;5135654;27;20194;-67
2022/11/30 05:14:21;;;;;;;0.57;0.57;;;;;;;8.12;100.00;99745.50;5147172;27;20239;-67
2022/11/30 05:16:49;;;;;;;0.60;0.60;;;;;;;8.17;100.00;99748.88;5144434;27;20201;-67
2022/11/30 05:19:16;;;;;;;0.50;0.50;;;;;;;8.16;100.00;99748.88;5143066;27;20201;-67
2022/11/30 05:21:43;;;;;;;0.40;0.40;;;;;;;8.17;100.00;99741.19;5129958;27;20977;-67
2022/11/30 05:24:10;;;;;;;0.50;0.50;;;;;;;8.10;100.00;99737.03;5129490;27;20270;-67
2022/11/30 05:26:38;;;;;;;0.60;0.60;;;;;;;7.99;100.00;99733.78;5131241;27;20198;-67
2022/11/30 05:29:05;;;;;;;0.50;0.50;;;;;;;8.16;100.00;99756.53;5131913;27;20201;-67
2022/11/30 05:31:33;;;;;;;0.50;0.50;;;;;;;8.10;100.00;99752.38;5136266;27;20680;-67
2022/11/30 05:34:01;;;;;;;0.60;0.60;;;;;;;8.11;100.00;99753.22;5144526;27;20194;-67
2022/11/30 05:36:27;;;;;;;0.80;0.80;;;;;;;8.15;100.00;99755.69;5133237;27;20224;-67
2022/11/30 05:38:54;;;;;;;0.40;0.40;;;;;;;8.13;100.00;99757.44;5138860;27;20198;-67
2022/11/30 05:41:21;;;;;;;0.67;0.67;;;;;;;8.09;100.00;99765.13;5133322;27;20554;-67
2022/11/30 05:43:48;;;;;;;0.90;0.90;;;;;;;8.13;100.00;99766.78;5140513;27;20198;-67
2022/11/30 05:46:15;;;;;;;0.50;0.50;;;;;;;7.87;100.00;99757.78;5133066;27;20201;-67
2022/11/30 05:48:41;;;;;;;1.00;1.00;;;;;;;8.01;100.00;99772.06;5133163;27;20322;-67
2022/11/30 05:51:11;;;;;;;0.50;0.50;;;;;;;7.85;100.00;99756.94;5131858;27;20194;-67
2022/11/30 05:53:38;;;;;;;0.50;0.50;;;;;;;7.90;100.00;99769.66;5130291;27;20198;-67
2022/11/30 05:56:07;;;;;;;0.50;0.50;;;;;;;7.91;100.00;99772.22;5131788;27;20198;-67
2022/11/30 05:58:34;;;;;;;0.60;0.60;;;;;;;7.97;100.00;99778.94;5132976;27;20220;-67
2022/11/30 06:01:01;;;;;;;0.43;0.43;;;;;;;7.92;100.00;99773.03;5132260;27;20217;-67
2022/11/30 06:03:29;;;;;;;0.50;0.50;;;;;;;7.87;100.00;99772.25;5132312;27;20229;-67
2022/11/30 06:05:55;;;;;;;1.10;1.10;;;;;;;7.86;100.00;99780.78;5132723;27;20198;-67
2022/11/30 06:08:24;;;;;;;0.57;0.57;;;;;;;7.77;100.00;99763.03;5132615;27;20730;-67
2022/11/30 06:10:51;;;;;;;0.60;0.60;;;;;;;7.87;100.00;99779.91;5132506;27;20198;-67
2022/11/30 06:13:18;;;;;;;0.50;0.50;;;;;;;7.81;100.00;99772.34;5135266;27;20194;-67
2022/11/30 06:15:45;;;;;;;0.50;0.50;;;;;;;7.74;100.00;99780.94;5132546;27;21059;-67
2022/11/30 06:18:13;;;;;;;0.80;0.80;;;;;;;7.75;100.00;99785.19;5150626;27;20286;-67
2022/11/30 06:20:40;;;;;;;0.50;0.50;;;;;;;7.75;100.00;99785.19;5143611;27;20229;-67
2022/11/30 06:23:06;;;;;;;0.63;0.63;;;;;;;7.73;100.00;99797.09;5137771;27;20221;-67
2022/11/30 06:25:35;;;;;;;0.50;0.50;;;;;;;7.77;100.00;99796.22;5141667;27;20197;-67
2022/11/30 06:28:01;;;;;;;0.80;0.80;;;;;;;7.78;100.00;99790.25;5132460;27;20213;-67
2022/11/30 06:30:28;;;;;;;0.50;0.50;;;;;;;7.78;100.00;99790.25;5147632;27;20197;-67
2022/11/30 06:32:55;;;;;;;0.50;0.50;;;;;;;7.72;100.00;99806.47;5142388;27;20189;-67
2022/11/30 06:35:22;;;;;;;0.50;0.50;;;;;;;7.73;100.00;99802.19;5136780;27;20206;-67
2022/11/30 06:37:48;;;;;;;0.70;0.70;;;;;;;7.76;100.00;99807.28;5142585;27;20189;-67
2022/11/30 06:40:16;;;;;;;1.03;1.03;;;;;;;7.80;100.00;99812.31;5152005;27;20261;-67
2022/11/30 06:42:44;;;;;;;0.53;0.53;;;;;;;7.69;100.00;99795.47;5134478;27;20210;-67
2022/11/30 06:45:11;;;;;;;0.67;0.67;;;;;;;7.68;100.00;99793.78;5145680;27;20205;-66
2022/11/30 06:47:38;;;;;;;0.60;0.60;;;;;;;7.66;100.00;99806.53;5136044;27;20213;-66
2022/11/30 06:50:07;;;;;;;0.60;0.60;;;;;;;7.68;100.00;99809.94;5152609;27;20617;-67
2022/11/30 06:52:34;;;;;;;0.67;0.67;;;;;;;7.73;100.00;99812.41;5135426;27;20261;-68
2022/11/30 06:55:01;;;;;;;0.57;0.57;;;;;;;7.71;100.00;99815.00;5134226;27;20197;-67
2022/11/30 06:57:28;;;;;;;0.40;0.40;;;;;;;7.62;100.00;99804.06;5137316;27;20284;-66
2022/11/30 06:59:57;;;;;;;0.70;0.70;;;;;;;7.64;100.00;99807.41;5131869;27;20737;-65
2022/11/30 07:02:24;;;;;;;0.67;0.67;;;;;;;7.65;100.00;99809.13;5142816;27;20209;-66
2022/11/30 07:04:51;;;;;;;0.63;0.63;;;;;;;7.58;100.00;99816.00;5151539;27;20577;-65
2022/11/30 07:07:17;;;;;;;0.87;0.87;;;;;;;7.59;100.00;99809.19;5137997;27;20243;-66
2022/11/30 07:09:44;;;;;;;0.67;0.67;;;;;;;7.58;100.00;99818.56;5138062;27;20254;-66
2022/11/30 07:12:11;;;;;;;0.70;0.70;;;;;;;7.59;100.00;99815.16;5139479;27;20205;-66
2022/11/30 07:14:38;;;;;;;0.60;0.60;;;;;;;7.64;100.00;99822.72;5130171;27;20198;-67
2022/11/30 07:17:06;;;;;;;0.60;0.60;;;;;;;7.69;100.00;99826.91;5135391;27;20732;-66
2022/11/30 07:19:34;;;;;;;0.60;0.60;;;;;;;7.69;100.00;99821.00;5130233;27;20194;-66
2022/11/30 07:22:01;;;;;;;0.70;0.70;;;;;;;7.71;100.00;99830.31;5131691;27;20202;-66
2022/11/30 07:27:12;;;;;;;0.60;0.60;;;;;;;7.77;100.00;99819.19;5126979;27;20212;-66
2022/11/30 07:29:39;;;;;;;0.80;0.80;;;;;;;7.75;100.00;99826.00;5127461;27;20201;-66
2022/11/30 07:32:07;;;;;;;0.77;0.77;;;;;;;7.78;100.00;99826.81;5130054;27;20198;-65
2022/11/30 07:34:34;;;;;;;0.50;0.50;;;;;;;7.79;100.00;99823.38;5147444;27;20230;-66
2022/11/30 07:37:00;;;;;;;1.03;1.03;;;;;;;7.83;100.00;99829.31;5127501;27;20668;-66
2022/11/30 07:39:27;;;;;;;0.93;0.93;;;;;;;7.84;100.00;99831.84;5142363;27;20225;-66
2022/11/30 07:41:54;;;;;;;0.50;0.50;;;;;;;7.86;100.00;99829.25;5141743;27;20208;-65
2022/11/30 07:44:21;;;;;;;0.73;0.73;;;;;;;7.83;100.00;99831.84;5138371;27;20189;-66
2022/11/30 07:46:47;;;;;;;0.70;0.70;;;;;;;7.78;100.00;99825.97;5144884;27;20203;-66
2022/11/30 07:49:15;;;;;;;0.50;0.50;;;;;;;7.74;100.00;99831.97;5146677;27;20197;-66
2022/11/30 07:51:42;;;;;;;0.80;0.80;;;;;;;7.69;100.00;99833.75;5143715;27;20202;-66
2022/11/30 07:54:09;;;;;;;0.50;0.50;;;;;;;7.73;100.00;99833.69;5144666;27;20193;-66
2022/11/30 07:56:36;;;;;;;1.10;1.10;;;;;;;7.76;100.00;99837.91;5148514;27;20243;-66
2022/11/30 07:59:03;;;;;;;0.50;0.50;;;;;;;7.72;100.00;99836.25;5149712;27;20193;-67
2022/11/30 08:01:32;;;;;;;1.23;1.23;;;;;;;7.74;100.00;99835.38;5142989;27;20193;-66
2022/11/30 08:03:59;;;;;;;3.20;1.07;;;;;;;7.72;100.00;99839.63;5139933;27;20233;-65
2022/11/30 08:06:29;;;;;;;0.60;0.60;;;;;;;7.75;100.00;99839.63;5137264;27;20666;-66
2022/11/30 08:08:58;;;;;;;0.60;0.60;;;;;;;7.77;100.00;99837.03;5143890;27;20246;-67
2022/11/30 08:11:29;;;;;;;0.50;0.50;;;;;;;7.78;100.00;99841.28;5138978;27;20207;-67
2022/11/30 08:13:56;;;;;;;0.60;0.60;;;;;;;7.78;100.00;99844.69;5132748;27;20200;-66
2022/11/30 08:16:25;;;;;;;0.70;0.70;;;;;;;7.81;100.00;99842.09;5128344;27;20681;-67
2022/11/30 08:18:52;;;;;;;0.40;0.40;;;;;;;7.84;100.00;99836.09;5132768;27;20231;-67
2022/11/30 08:21:21;;;;;;;0.50;0.50;;;;;;;7.88;100.00;99833.47;5142251;27;20206;-67
2022/11/30 08:23:50;;;;;;;0.60;0.60;;;;;;;7.89;100.00;99834.31;5133054;27;20222;-67
2022/11/30 08:26:19;;;;;;;0.77;0.77;;;;;;;7.92;100.00;99834.28;5129750;27;20202;-66
2022/11/30 08:28:48;;;;;;;0.60;0.60;;;;;;;7.93;100.00;99825.78;5135658;27;20721;-66
2022/11/30 08:31:16;;;;;;;0.87;0.87;;;;;;;7.92;100.00;99829.19;5135318;27;20202;-66
2022/11/30 08:33:43;;;;;;;0.50;0.50;;;;;;;7.95;100.00;99826.59;5129565;27;20441;-64
2022/11/30 08:36:12;;;;;;;0.63;0.63;;;;;;;8.01;100.00;99831.66;5128755;27;20221;-64
2022/11/30 08:38:40;;;;;;;0.60;0.60;;;;;;;7.96;100.00;99823.19;5126465;27;20198;-64
2022/11/30 08:41:11;;;;;;;0.50;0.50;;;;;;;7.99;100.00;99835.91;5126920;27;20205;-64
2022/11/30 08:43:38;;;;;;;0.67;0.67;;;;;;;7.91;100.00;99818.16;5128320;27;20332;-65
2022/11/30 08:46:08;;;;;;;0.60;0.60;;;;;;;7.89;100.00;99824.13;5130146;27;20202;-64
2022/11/30 08:48:35;;;;;;;0.70;0.70;;;;;;;7.91;100.00;99827.53;5129586;27;20657;-64
2022/11/30 08:51:03;;;;;;;0.50;0.50;;;;;;;7.94;100.00;99822.38;5127732;27;20703;-65
2022/11/30 08:53:30;;;;;;;0.50;0.50;;;;;;;7.94;100.00;99817.28;5127756;27;20194;-64
2022/11/30 08:55:57;;;;;;;0.50;0.50;;;;;;;7.94;100.00;99814.72;5128774;27;20592;-64
2022/11/30 08:58:26;;;;;;;0.70;0.70;;;;;;;7.90;100.00;99813.06;5128263;27;20247;-64
2022/11/30 09:00:53;;;;;;;0.47;0.47;;;;;;;7.89;100.00;99819.00;5128704;27;20210;-64
2022/11/30 09:03:20;;;;;;;0.70;0.70;;;;;;;7.93;100.00;99821.53;5127300;27;20253;-64
2022/11/30 09:05:47;;;;;;;0.50;0.50;;;;;;;8.00;100.00;99832.50;5133552;27;20634;-64
2022/11/30 09:08:14;;;;;;;0.80;0.80;;;;;;;8.02;100.00;99824.81;5123725;27;20198;-64
2022/11/30 09:10:41;;;;;;;0.70;0.70;;;;;;;7.94;100.00;99827.47;5124947;27;20194;-64
2022/11/30 09:13:07;;;;;;;1.03;1.03;;;;;;;8.02;100.00;99827.34;5128279;27;20190;-64
2022/11/30 09:15:35;;;;;;;1.13;1.13;;;;;;;7.90;100.00;99821.56;5127224;27;20198;-64
2022/11/30 09:18:02;;;;;;;0.60;0.60;;;;;;;7.98;100.00;99823.19;5126067;27;20205;-64
2022/11/30 09:20:29;;;;;;;0.50;0.50;;;;;;;8.00;100.00;99824.00;5125349;27;20198;-64
2022/11/30 09:22:56;;;;;;;0.70;0.70;;;;;;;7.99;100.00;99820.59;5124213;27;20218;-64
2022/11/30 09:25:22;;;;;;;0.73;0.73;;;;;;;7.99;100.00;99820.59;5124354;27;20217;-64
2022/11/30 09:27:49;;;;;;;0.60;0.60;;;;;;;8.03;100.00;99814.59;5122859;27;20202;-64
2022/11/30 09:30:16;;;;;;;0.50;0.50;;;;;;;8.01;100.00;99816.31;5122843;27;20209;-64
2022/11/30 09:32:44;;;;;;;0.70;0.70;;;;;;;7.97;100.00;99812.13;5122685;27;20194;-64
2022/11/30 09:35:11;;;;;;;0.47;0.47;;;;;;;7.99;100.00;99815.47;5129518;27;20210;-64
2022/11/30 09:37:39;;;;;;;0.80;0.80;;;;;;;7.97;100.00;99807.00;5128436;27;20626;-64
2022/11/30 09:40:07;;;;;;;0.63;0.63;;;;;;;7.99;100.00;99815.47;5124223;27;20195;-64
2022/11/30 09:42:47;;;;;;;0.83;0.83;;;;;;;7.98;100.00;99812.97;5127321;27;20206;-64
2022/11/30 09:45:19;;;;;;;0.70;0.70;;;;;;;8.01;100.00;99803.56;5130627;27;20209;-65
2022/11/30 09:48:27;;;;;;;0.50;0.50;;;;;;;7.99;100.00;99814.63;5124548;27;20195;-64
2022/11/30 09:50:55;;;;;;;0.70;0.70;;;;;;;7.99;100.00;99814.63;5092347;27;20209;-64
2022/11/30 09:53:27;;;;;;;0.40;0.40;;;;;;;8.00;100.00;99812.06;5131990;27;20704;-64
2022/11/30 09:55:54;;;;;;;0.70;0.70;;;;;;;8.04;100.00;99813.72;5124599;27;20623;-64
2022/11/30 09:58:36;;;;;;;0.43;0.43;;;;;;;8.05;100.00;99814.56;5132262;27;20294;-64
2022/11/30 10:01:04;;;;;;;0.53;0.53;;;;;;;8.01;100.00;99812.94;5136855;27;20209;-64
2022/11/30 10:03:32;;;;;;;0.60;0.60;;;;;;;7.92;100.00;99798.56;5133331;27;20249;-64
2022/11/30 10:06:05;;;;;;;0.67;0.67;;;;;;;8.05;100.00;99810.28;5129105;27;20696;-64
2022/11/30 10:08:47;;;;;;;0.50;0.50;;;;;;;8.07;100.00;99816.25;5138985;27;20209;-64
2022/11/30 10:11:32;;;;;;;0.53;0.53;;;;;;;8.07;100.00;99816.25;5132102;27;20685;-65
2022/11/30 10:14:16;;;;;;;0.60;0.60;;;;;;;8.07;100.00;99816.25;5131622;27;20190;-65
2022/11/30 10:16:52;;;;;;;0.60;0.60;;;;;;;8.03;100.00;99819.69;5129246;27;20654;-65
2022/11/30 10:19:35;;;;;;;0.50;0.50;;;;;;;8.03;100.00;99818.84;5132703;27;20673;-65
2022/11/30 10:22:13;;;;;;;0.60;0.60;;;;;;;8.04;100.00;99818.00;5132663;27;20206;-65
2022/11/30 10:24:56;;;;;;;0.77;0.77;;;;;;;8.04;100.00;99818.84;5137926;27;20278;-64
2022/11/30 10:27:35;;;;;;;0.60;0.60;;;;;;;8.11;100.00;99822.16;5139479;27;20197;-65
2022/11/30 10:30:02;;;;;;;0.80;0.80;;;;;;;8.08;100.00;99815.34;5130337;27;20588;-65
2022/11/30 10:32:38;;;;;;;0.57;0.57;;;;;;;8.15;100.00;99816.97;5131048;27;20190;-64
2022/11/30 10:35:18;;;;;;;0.50;0.50;;;;;;;8.15;100.00;99816.13;5127973;27;20198;-64
2022/11/30 10:37:46;;;;;;;0.60;0.60;;;;;;;8.19;100.00;99822.88;5132014;27;20204;-64
2022/11/30 10:40:17;;;;;;;0.40;0.40;;;;;;;8.21;100.00;99821.97;5132128;27;20201;-64
2022/11/30 10:42:49;;;;;;;0.60;0.60;;;;;;;8.20;100.00;99814.34;5137212;27;20638;-65
2022/11/30 10:45:19;;;;;;;0.60;0.60;;;;;;;8.20;100.00;99815.22;5131914;27;20559;-64
2022/11/30 10:48:01;;;;;;;0.57;0.57;;;;;;;8.25;100.00;99823.63;5130852;27;20266;-65
2022/11/30 10:50:30;;;;;;;0.60;0.60;;;;;;;8.27;100.00;99815.97;5131743;27;20653;-64
2022/11/30 10:52:59;;;;;;;1.00;1.00;;;;;;;8.33;100.00;99814.22;5131822;27;20247;-65
2022/11/30 10:55:29;;;;;;;0.70;0.70;;;;;;;8.20;100.00;99802.44;5130802;27;20440;-68
2022/11/30 10:58:00;;;;;;;0.70;0.70;;;;;;;8.66;100.00;99819.69;5126742;27;20449;-65
2022/11/30 11:00:27;;;;;;;0.53;0.53;;;;;;;8.91;100.00;99814.13;5126396;27;20213;-66
2022/11/30 11:02:54;;;;;;;0.50;0.50;;;;;;;8.93;100.00;99808.97;5128904;27;20229;-66
2022/11/30 11:05:23;;;;;;;1.50;1.00;;;;;;;8.74;100.00;99794.81;5131054;27;20218;-66
2022/11/30 11:07:55;;;;;;;0.50;0.50;;;;;;;8.78;100.00;99806.69;5130551;27;20653;-66
2022/11/30 11:10:29;;;;;;;0.70;0.70;;;;;;;8.77;100.00;99810.09;5131021;27;20201;-66
2022/11/30 11:12:56;;;;;;;0.50;0.50;;;;;;;8.75;100.00;99806.75;5129729;27;20325;-66
2022/11/30 11:15:25;;;;;;;0.50;0.50;;;;;;;8.77;100.00;99805.00;5133105;27;20221;-66
2022/11/30 11:17:53;;;;;;;0.50;0.50;;;;;;;8.72;100.00;99804.25;5130095;27;20194;-66
2022/11/30 11:20:34;;;;;;;0.57;0.57;;;;;;;8.65;100.00;99792.41;5128448;27;20275;-66
2022/11/30 11:23:04;;;;;;;0.43;0.43;;;;;;;8.58;100.00;99791.66;5128806;27;20209;-67
2022/11/30 11:25:34;;;;;;;0.57;0.57;;;;;;;8.55;100.00;99789.16;5131566;27;20208;-66
2022/11/30 11:28:07;;;;;;;0.60;0.60;;;;;;;8.59;100.00;99784.84;5128321;27;20194;-67
2022/11/30 11:30:38;;;;;;;1.20;1.17;;;;;;;8.60;100.00;99781.41;5130709;27;20619;-66
2022/11/30 11:33:20;;;;;;;0.60;0.60;;;;;;;8.44;100.00;99783.38;5129563;27;20190;-66
2022/11/30 11:35:49;;;;;;;0.60;0.60;;;;;;;8.55;100.00;99785.75;5131517;27;20229;-67
2022/11/30 11:38:42;;;;;;;0.80;0.80;;;;;;;8.49;100.00;99783.31;5130552;27;20241;-66
2022/11/30 11:41:18;;;;;;;0.40;0.40;;;;;;;8.50;100.00;99767.94;5137665;27;20626;-67
2022/11/30 11:43:58;;;;;;;0.50;0.50;;;;;;;8.37;100.00;99771.56;5126292;27;20213;-66
2022/11/30 11:46:25;;;;;;;0.50;0.50;;;;;;;8.30;100.00;99755.47;5126869;27;20190;-67